Time;durP1;ratioP1;P1;durP2;ratioP2;P2;SDS_P1;SDS_P2;PMS_P1;PMS_P2;Temp;Humidity;BMP_temperature;BMP_pressure;BME280_temperature;BME280_humidity;BME280_pressure;Samples;Min_cycle;Max_cycle;Signal;HPM_P1;HPM_P2
2023/03/02 00:01:55;;;;;;;16.60;10.50;;;-0.40;99.90;;;;;;5078026;28;20490;-63
2023/03/02 00:04:26;;;;;;;15.53;10.33;;;-0.40;99.90;;;;;;5077204;28;20815;-62
2023/03/02 00:06:58;;;;;;;15.23;10.13;;;-0.40;99.90;;;;;;5077438;28;20491;-63
2023/03/02 00:09:26;;;;;;;13.17;9.50;;;-0.50;99.90;;;;;;5077053;28;20589;-63
2023/03/02 00:11:53;;;;;;;14.93;10.10;;;-0.50;99.90;;;;;;5077214;28;20455;-61
2023/03/02 00:14:20;;;;;;;16.47;11.37;;;-0.60;99.90;;;;;;5076655;28;20465;-63
2023/03/02 00:16:47;;;;;;;12.93;9.67;;;-0.60;99.90;;;;;;5077905;28;20463;-63
2023/03/02 00:19:15;;;;;;;13.53;9.60;;;-0.60;99.90;;;;;;5078068;28;20548;-63
2023/03/02 00:21:42;;;;;;;12.67;9.67;;;-0.70;99.90;;;;;;5078745;28;20465;-63
2023/03/02 00:24:10;;;;;;;12.73;9.70;;;-0.60;99.90;;;;;;5077460;28;20811;-63
2023/03/02 00:26:37;;;;;;;18.73;10.17;;;-0.60;99.90;;;;;;5078148;28;20865;-63
2023/03/02 00:29:05;;;;;;;14.93;10.17;;;-0.60;99.90;;;;;;5078211;28;20460;-63
2023/03/02 00:31:33;;;;;;;14.20;9.50;;;-0.60;99.90;;;;;;5077855;28;20462;-63
2023/03/02 00:34:00;;;;;;;14.40;10.27;;;-0.60;99.90;;;;;;5078023;28;20761;-63
2023/03/02 00:36:27;;;;;;;14.57;9.33;;;-0.50;99.90;;;;;;5078204;28;20458;-63
2023/03/02 00:38:56;;;;;;;17.37;10.23;;;-0.50;99.90;;;;;;5077530;28;20480;-63
2023/03/02 00:41:24;;;;;;;14.40;9.10;;;-0.50;99.90;;;;;;5077070;28;20465;-63
2023/03/02 00:43:52;;;;;;;12.60;8.77;;;-0.50;99.90;;;;;;5077979;28;20489;-63
2023/03/02 00:46:21;;;;;;;14.70;9.67;;;-0.50;99.90;;;;;;5080383;28;20457;-63
2023/03/02 00:48:48;;;;;;;12.30;9.40;;;-0.60;99.90;;;;;;5081652;28;20796;-63
2023/03/02 00:51:16;;;;;;;13.17;9.60;;;-0.70;99.90;;;;;;5081578;28;20479;-63
2023/03/02 00:53:44;;;;;;;15.43;9.90;;;-0.80;99.90;;;;;;5081377;28;20461;-63
2023/03/02 00:56:11;;;;;;;12.50;9.73;;;-0.90;99.90;;;;;;5081215;28;20735;-63
2023/03/02 00:58:40;;;;;;;14.67;10.20;;;-0.90;99.90;;;;;;5081132;28;20495;-63
2023/03/02 01:01:09;;;;;;;13.87;9.87;;;-0.90;99.90;;;;;;5081149;28;20816;-63
2023/03/02 01:03:36;;;;;;;14.27;10.83;;;-0.90;99.90;;;;;;5080986;28;20471;-63
2023/03/02 01:06:04;;;;;;;12.90;9.33;;;-0.90;99.90;;;;;;5080392;28;20921;-63
2023/03/02 01:08:32;;;;;;;11.27;9.60;;;-1.00;99.90;;;;;;5081351;28;20547;-63
2023/03/02 01:11:00;;;;;;;16.30;10.07;;;-1.10;99.90;;;;;;5081014;28;20942;-63
2023/03/02 01:13:28;;;;;;;13.53;9.60;;;-1.20;99.90;;;;;;5081170;28;20753;-63
2023/03/02 01:16:04;;;;;;;15.70;9.90;;;-1.10;99.90;;;;;;5081014;28;20465;-63
2023/03/02 01:18:33;;;;;;;16.07;9.80;;;-1.20;99.90;;;;;;5080844;28;20511;-63
2023/03/02 01:21:02;;;;;;;16.17;10.27;;;-1.20;99.90;;;;;;5081214;28;20464;-63
2023/03/02 01:23:29;;;;;;;12.70;9.93;;;-1.20;99.90;;;;;;5080780;28;20492;-63
2023/03/02 01:25:57;;;;;;;13.10;9.93;;;-1.30;99.90;;;;;;5081104;28;20474;-62
2023/03/02 01:28:24;;;;;;;16.33;9.47;;;-1.30;99.90;;;;;;5080886;28;20878;-63
2023/03/02 01:30:53;;;;;;;15.07;10.93;;;-1.30;99.90;;;;;;5081011;28;20462;-63
2023/03/02 01:33:21;;;;;;;12.53;9.60;;;-1.30;99.90;;;;;;5081234;28;20465;-63
2023/03/02 01:35:49;;;;;;;17.90;10.60;;;-1.30;99.90;;;;;;5081110;28;20489;-63
2023/03/02 01:38:16;;;;;;;14.50;9.87;;;-1.30;99.90;;;;;;5080809;28;20762;-63
2023/03/02 01:40:44;;;;;;;13.77;10.33;;;-1.40;99.90;;;;;;5080363;28;20466;-63
2023/03/02 01:43:14;;;;;;;17.40;11.27;;;-1.40;99.90;;;;;;5079933;28;20457;-63
2023/03/02 01:45:53;;;;;;;13.60;9.13;;;-1.50;99.90;;;;;;5080984;28;20792;-63
2023/03/02 01:48:27;;;;;;;13.00;9.23;;;-1.50;99.90;;;;;;5080724;28;20891;-63
2023/03/02 01:50:55;;;;;;;14.77;9.93;;;-1.50;99.90;;;;;;5080993;28;20459;-63
2023/03/02 01:53:25;;;;;;;12.70;9.60;;;-1.50;1.00;;;;;;5080710;28;20528;-63
2023/03/02 01:55:53;;;;;;;14.27;10.53;;;-1.50;1.00;;;;;;5080453;28;20461;-62
2023/03/02 01:58:21;;;;;;;15.27;9.83;;;-1.60;1.00;;;;;;5080112;28;20504;-62
2023/03/02 02:00:49;;;;;;;17.30;11.30;;;-1.60;1.00;;;;;;5080344;28;20509;-62
2023/03/02 02:03:20;;;;;;;14.43;10.70;;;-1.60;1.00;;;;;;5080570;28;20466;-62
2023/03/02 02:05:59;;;;;;;14.53;10.70;;;-1.60;1.00;;;;;;5079998;28;20461;-63
2023/03/02 02:08:27;;;;;;;16.70;10.17;;;-1.60;1.00;;;;;;5079697;28;20475;-62
2023/03/02 02:10:55;;;;;;;15.10;9.53;;;-1.60;1.00;;;;;;5080232;28;20954;-62
2023/03/02 02:13:22;;;;;;;12.30;10.20;;;-1.50;1.00;;;;;;5080461;28;20834;-62
2023/03/02 02:15:50;;;;;;;17.13;10.60;;;-1.50;1.00;;;;;;5079972;28;20502;-62
2023/03/02 02:18:18;;;;;;;14.20;9.97;;;-1.40;1.00;;;;;;5080467;28;20587;-62
2023/03/02 02:20:47;;;;;;;13.67;10.07;;;-1.40;1.00;;;;;;5080394;28;20568;-63
2023/03/02 02:23:25;;;;;;;14.97;9.17;;;-1.30;1.00;;;;;;5080855;28;20504;-62
2023/03/02 02:26:12;;;;;;;17.00;9.97;;;-1.30;1.00;;;;;;5080113;28;20451;-62
2023/03/02 02:28:43;;;;;;;14.90;10.23;;;-1.20;1.00;;;;;;5080384;28;20453;-62
2023/03/02 02:31:16;;;;;;;14.53;9.60;;;-1.30;1.00;;;;;;5080444;28;20461;-62
2023/03/02 02:33:46;;;;;;;15.50;10.20;;;-1.20;1.00;;;;;;5080305;28;20810;-63
2023/03/02 02:36:21;;;;;;;16.30;9.80;;;-1.30;1.00;;;;;;5080097;28;20462;-62
2023/03/02 02:38:52;;;;;;;13.77;9.50;;;-1.30;1.00;;;;;;5079735;28;20492;-62
2023/03/02 02:41:24;;;;;;;13.57;10.40;;;-1.30;1.00;;;;;;5079967;28;20552;-62
2023/03/02 02:43:52;;;;;;;13.70;10.17;;;-1.30;1.00;;;;;;5080769;28;20892;-62
2023/03/02 02:46:19;;;;;;;16.60;10.70;;;-1.30;1.00;;;;;;5080507;28;20468;-62
2023/03/02 02:48:46;;;;;;;15.93;9.30;;;-1.30;1.00;;;;;;5079855;28;20459;-62
2023/03/02 02:51:20;;;;;;;16.37;9.93;;;-1.40;1.00;;;;;;5080647;28;20590;-62
2023/03/02 02:53:50;;;;;;;13.20;9.00;;;-1.40;1.00;;;;;;5080113;28;20464;-62
2023/03/02 02:56:18;;;;;;;15.07;9.67;;;-1.30;1.00;;;;;;5068241;28;20473;-60
2023/03/02 02:58:50;;;;;;;15.90;10.80;;;-1.30;1.00;;;;;;5057487;28;20500;-62
2023/03/02 03:01:24;;;;;;;14.93;9.57;;;-1.30;1.00;;;;;;5058460;28;20892;-62
2023/03/02 03:03:53;;;;;;;15.07;10.07;;;-1.30;1.00;;;;;;5057944;28;20466;-61
2023/03/02 03:06:24;;;;;;;14.33;8.90;;;-1.20;1.00;;;;;;5057353;28;20759;-60
2023/03/02 03:08:58;;;;;;;12.67;9.93;;;-1.30;1.00;;;;;;5057229;28;20521;-62
2023/03/02 03:11:27;;;;;;;18.03;10.20;;;-1.20;1.00;;;;;;5058067;28;20888;-59
2023/03/02 03:14:02;;;;;;;13.93;9.53;;;-1.20;1.00;;;;;;5057687;28;20501;-62
2023/03/02 03:16:30;;;;;;;15.80;8.53;;;-1.30;1.00;;;;;;5057282;28;20468;-61
2023/03/02 03:19:04;;;;;;;12.80;8.43;;;-1.20;1.00;;;;;;5057408;28;20778;-60
2023/03/02 03:21:31;;;;;;;11.40;8.90;;;-1.20;99.90;;;;;;5057593;28;20571;-62
2023/03/02 03:23:58;;;;;;;13.50;9.30;;;-1.30;99.90;;;;;;5057443;28;20523;-61
2023/03/02 03:26:26;;;;;;;12.50;9.07;;;-1.30;99.90;;;;;;5057620;28;20464;-62
2023/03/02 03:28:56;;;;;;;13.13;9.83;;;-1.30;99.90;;;;;;5057871;28;20458;-62
2023/03/02 03:31:26;;;;;;;13.27;9.10;;;-1.30;99.90;;;;;;5057521;28;20545;-62
2023/03/02 03:33:54;;;;;;;12.50;9.87;;;-1.20;99.90;;;;;;5057511;28;20550;-62
2023/03/02 03:36:22;;;;;;;15.30;9.97;;;-1.30;99.90;;;;;;5056966;28;20499;-62
2023/03/02 03:38:49;;;;;;;12.53;9.10;;;-1.30;99.90;;;;;;5057134;28;20586;-62
2023/03/02 03:41:16;;;;;;;12.27;9.17;;;-1.30;99.90;;;;;;5057581;28;20468;-63
2023/03/02 03:43:43;;;;;;;13.40;9.00;;;-1.20;99.90;;;;;;5057444;28;20844;-62
2023/03/02 03:46:10;;;;;;;11.90;9.30;;;-1.20;99.90;;;;;;5057028;28;20875;-60
2023/03/02 03:48:39;;;;;;;12.67;8.33;;;-1.20;99.90;;;;;;5057521;28;20458;-60
2023/03/02 03:51:07;;;;;;;16.00;10.83;;;-1.20;99.90;;;;;;5057082;28;20556;-62
2023/03/02 03:53:34;;;;;;;15.60;9.80;;;-1.30;99.90;;;;;;5057606;28;20557;-63
2023/03/02 03:56:02;;;;;;;13.33;9.47;;;-1.20;99.90;;;;;;5057556;28;20879;-62
2023/03/02 03:58:30;;;;;;;13.70;9.63;;;-1.20;99.90;;;;;;5057895;28;20497;-62
2023/03/02 04:00:58;;;;;;;16.27;10.73;;;-1.20;99.90;;;;;;5058783;28;20469;-62
2023/03/02 04:03:27;;;;;;;12.77;7.97;;;-1.20;99.90;;;;;;5059514;28;20907;-62
2023/03/02 04:05:56;;;;;;;12.17;8.33;;;-1.30;99.90;;;;;;5059183;28;20467;-62
2023/03/02 04:08:23;;;;;;;13.30;9.20;;;-1.30;99.90;;;;;;5059424;28;20561;-62
2023/03/02 04:10:51;;;;;;;12.50;8.53;;;-1.40;99.90;;;;;;5059175;28;20544;-62
2023/03/02 04:13:18;;;;;;;12.37;7.40;;;-1.30;99.90;;;;;;5059039;28;20945;-62
2023/03/02 04:15:45;;;;;;;12.90;8.27;;;-1.40;99.90;;;;;;5058980;28;20497;-62
2023/03/02 04:18:12;;;;;;;12.27;8.70;;;-1.30;99.90;;;;;;5060041;28;20904;-62
2023/03/02 04:20:40;;;;;;;10.70;7.27;;;-1.40;99.90;;;;;;5063028;28;20612;-62
2023/03/02 04:23:08;;;;;;;13.13;9.00;;;-1.50;99.90;;;;;;5063188;28;20575;-62
2023/03/02 04:25:36;;;;;;;11.40;8.70;;;-1.50;99.90;;;;;;5062990;28;20552;-62
2023/03/02 04:28:04;;;;;;;10.47;8.20;;;-1.60;99.90;;;;;;5062924;28;20560;-62
2023/03/02 04:30:31;;;;;;;11.60;9.20;;;-1.60;99.90;;;;;;5062926;28;20493;-62
2023/03/02 04:32:59;;;;;;;13.60;8.97;;;-1.70;99.90;;;;;;5062201;28;20462;-62
2023/03/02 04:35:26;;;;;;;12.73;9.40;;;-1.70;99.90;;;;;;5062898;28;20557;-62
2023/03/02 04:37:54;;;;;;;13.40;8.57;;;-1.70;1.00;;;;;;5062886;28;20493;-62
2023/03/02 04:40:23;;;;;;;11.50;8.80;;;-1.80;99.90;;;;;;5062509;28;20494;-62
2023/03/02 04:42:50;;;;;;;13.00;8.80;;;-1.80;99.90;;;;;;5063017;28;20536;-62
2023/03/02 04:45:18;;;;;;;13.00;9.20;;;-1.80;99.90;;;;;;5063180;28;20985;-62
2023/03/02 04:47:46;;;;;;;13.13;8.77;;;-1.80;99.90;;;;;;5061842;28;20565;-62
2023/03/02 04:50:14;;;;;;;12.73;9.33;;;-1.80;99.90;;;;;;5062905;28;20828;-62
2023/03/02 04:52:42;;;;;;;12.13;8.30;;;-1.80;99.90;;;;;;5062496;28;20562;-62
2023/03/02 04:55:17;;;;;;;13.87;9.97;;;-1.90;99.90;;;;;;5062615;28;20561;-62
2023/03/02 04:57:46;;;;;;;12.53;9.40;;;-1.90;99.90;;;;;;5062721;28;20511;-62
2023/03/02 05:00:15;;;;;;;13.83;9.93;;;-1.80;99.90;;;;;;5062455;28;20593;-62
2023/03/02 05:02:42;;;;;;;13.33;9.10;;;-1.80;99.90;;;;;;5080077;28;20458;-62
2023/03/02 05:05:16;;;;;;;10.67;8.30;;;-1.80;99.90;;;;;;5082711;28;20567;-62
2023/03/02 05:07:44;;;;;;;11.33;8.93;;;-1.80;99.90;;;;;;5089160;28;20491;-62
2023/03/02 05:10:12;;;;;;;13.40;8.97;;;-1.80;99.90;;;;;;5086193;28;20487;-62
2023/03/02 05:12:53;;;;;;;11.77;8.50;;;-1.70;99.90;;;;;;5083563;28;20493;-62
2023/03/02 05:15:24;;;;;;;13.70;9.17;;;-1.70;99.90;;;;;;5080373;28;20535;-62
2023/03/02 05:17:51;;;;;;;15.43;9.23;;;-1.70;99.90;;;;;;5079662;28;20536;-62
2023/03/02 05:20:19;;;;;;;13.27;9.10;;;-1.70;99.90;;;;;;5081487;28;21017;-62
2023/03/02 05:22:47;;;;;;;15.33;9.27;;;-1.70;99.90;;;;;;5080349;28;20477;-62
2023/03/02 05:25:14;;;;;;;12.03;8.43;;;-1.70;99.90;;;;;;5080057;28;20575;-62
2023/03/02 05:27:41;;;;;;;12.90;8.40;;;-1.80;99.90;;;;;;5075890;28;20780;-62
2023/03/02 05:30:10;;;;;;;14.60;9.73;;;-1.80;99.90;;;;;;5078766;28;20492;-62
2023/03/02 05:32:41;;;;;;;13.07;9.57;;;-1.90;99.90;;;;;;5080465;28;20510;-62
2023/03/02 05:35:09;;;;;;;13.43;9.37;;;-1.90;99.90;;;;;;5076036;28;20459;-62
2023/03/02 05:37:40;;;;;;;11.43;8.87;;;-2.00;99.90;;;;;;5077717;28;20496;-62
2023/03/02 05:40:09;;;;;;;12.53;8.20;;;-1.90;99.90;;;;;;5079514;28;20575;-63
2023/03/02 05:42:36;;;;;;;13.20;8.70;;;-2.00;99.90;;;;;;5077158;28;20462;-63
2023/03/02 05:45:04;;;;;;;13.30;8.90;;;-1.90;99.90;;;;;;5078904;28;20783;-62
2023/03/02 05:47:31;;;;;;;17.00;9.00;;;-1.90;99.90;;;;;;5079071;28;20552;-62
2023/03/02 05:50:00;;;;;;;11.27;8.10;;;-1.80;99.90;;;;;;5079906;28;20545;-62
2023/03/02 05:52:27;;;;;;;18.23;9.53;;;-1.70;99.90;;;;;;5079066;28;20532;-62
2023/03/02 05:54:55;;;;;;;12.80;8.77;;;-1.80;99.90;;;;;;5079758;28;20458;-62
2023/03/02 05:57:22;;;;;;;13.20;8.70;;;-1.80;99.90;;;;;;5078933;28;20511;-62
2023/03/02 05:59:50;;;;;;;12.77;8.83;;;-1.90;99.90;;;;;;5077427;28;20931;-62
2023/03/02 06:02:17;;;;;;;12.27;8.67;;;-1.80;99.90;;;;;;5077135;28;20461;-62
2023/03/02 06:04:45;;;;;;;13.33;9.53;;;-1.80;99.90;;;;;;5077670;28;20484;-62
2023/03/02 06:07:14;;;;;;;16.60;9.83;;;-1.80;99.90;;;;;;5077911;28;20500;-62
2023/03/02 06:09:42;;;;;;;12.30;10.03;;;-1.80;99.90;;;;;;5077255;28;20915;-62
2023/03/02 06:12:09;;;;;;;13.00;8.60;;;-1.80;99.90;;;;;;5077362;28;20511;-61
2023/03/02 06:14:37;;;;;;;13.83;9.90;;;-1.80;99.90;;;;;;5076473;28;20491;-62
2023/03/02 06:17:04;;;;;;;14.13;9.00;;;-1.80;99.90;;;;;;5077777;28;20556;-62
2023/03/02 06:19:32;;;;;;;15.37;9.13;;;-1.80;99.90;;;;;;5076737;28;20576;-62
2023/03/02 06:21:59;;;;;;;14.53;8.43;;;-1.80;99.90;;;;;;5077769;28;20457;-62
2023/03/02 06:24:27;;;;;;;12.70;9.70;;;-1.80;99.90;;;;;;5077695;28;20595;-62
2023/03/02 06:26:55;;;;;;;14.30;9.23;;;-1.60;99.90;;;;;;5077495;28;20910;-62
2023/03/02 06:29:23;;;;;;;14.53;9.60;;;-1.40;99.90;;;;;;5076939;28;20544;-62
2023/03/02 06:31:50;;;;;;;15.50;9.53;;;-1.30;99.90;;;;;;5078498;28;20549;-62
2023/03/02 06:34:17;;;;;;;14.13;9.50;;;-1.40;99.90;;;;;;5077409;28;20953;-62
2023/03/02 06:36:45;;;;;;;17.37;9.87;;;-1.40;99.90;;;;;;5075741;28;20558;-61
2023/03/02 06:39:14;;;;;;;12.70;9.27;;;-1.30;99.90;;;;;;5073614;28;20493;-61
2023/03/02 06:41:43;;;;;;;12.90;8.60;;;-1.30;99.90;;;;;;5072005;28;20467;-61
2023/03/02 06:44:11;;;;;;;11.63;8.27;;;-1.30;99.90;;;;;;5072524;28;20484;-58
2023/03/02 06:46:39;;;;;;;11.03;8.60;;;-1.40;99.90;;;;;;5071230;28;20468;-61
2023/03/02 06:49:06;;;;;;;10.03;7.63;;;-1.40;99.90;;;;;;5071894;28;20952;-62
2023/03/02 06:51:34;;;;;;;11.67;8.07;;;-1.40;99.90;;;;;;5074388;28;20958;-60
2023/03/02 06:54:01;;;;;;;16.17;8.57;;;-1.30;99.90;;;;;;5075313;28;20524;-59
2023/03/02 06:56:29;;;;;;;13.13;7.43;;;-1.20;99.90;;;;;;5075228;28;20479;-61
2023/03/02 06:58:58;;;;;;;12.63;9.00;;;-1.20;99.90;;;;;;5076529;28;20461;-61
2023/03/02 07:01:25;;;;;;;10.67;8.50;;;-1.10;99.90;;;;;;5075107;28;20873;-61
2023/03/02 07:03:52;;;;;;;10.53;8.03;;;-1.10;99.90;;;;;;5072404;28;20459;-58
2023/03/02 07:06:20;;;;;;;13.23;9.00;;;-1.00;99.90;;;;;;5073167;28;20458;-60
2023/03/02 07:08:47;;;;;;;16.17;8.90;;;-1.00;99.90;;;;;;5074773;28;20469;-60
2023/03/02 07:11:14;;;;;;;12.80;8.20;;;-0.90;99.90;;;;;;5074702;28;20453;-60
2023/03/02 07:13:42;;;;;;;12.13;8.80;;;-0.80;99.90;;;;;;5074706;28;20559;-60
2023/03/02 07:16:12;;;;;;;12.17;8.30;;;-0.70;99.90;;;;;;5075289;28;20462;-59
2023/03/02 07:18:40;;;;;;;14.20;8.50;;;-0.60;99.90;;;;;;5076658;28;20485;-58
2023/03/02 07:21:07;;;;;;;13.97;8.83;;;-0.60;99.90;;;;;;5076760;28;20486;-60
2023/03/02 07:23:36;;;;;;;12.00;8.47;;;-0.50;99.90;;;;;;5076816;28;20453;-61
2023/03/02 07:26:07;;;;;;;13.60;8.50;;;-0.40;99.90;;;;;;5076731;28;20463;-60
2023/03/02 07:28:35;;;;;;;13.37;9.30;;;-0.20;99.90;;;;;;5073468;28;20514;-61
2023/03/02 07:31:05;;;;;;;13.17;8.97;;;0.00;99.90;;;;;;5076459;28;20459;-59
2023/03/02 07:33:33;;;;;;;14.20;8.30;;;0.10;99.90;;;;;;5073515;28;20588;-61
2023/03/02 07:36:00;;;;;;;9.60;7.70;;;0.40;99.90;;;;;;5076505;28;20874;-60
2023/03/02 07:38:31;;;;;;;15.20;10.60;;;0.60;99.90;;;;;;5074911;28;20493;-60
2023/03/02 07:41:00;;;;;;;11.07;7.70;;;0.70;99.90;;;;;;5075153;28;20488;-58
2023/03/02 07:43:30;;;;;;;11.50;8.90;;;0.90;99.90;;;;;;5075587;28;20452;-61
2023/03/02 07:45:59;;;;;;;10.70;7.77;;;1.20;99.90;;;;;;5075570;28;20912;-59
2023/03/02 07:48:26;;;;;;;10.13;8.00;;;1.40;99.90;;;;;;5075787;28;20833;-59
2023/03/02 07:51:00;;;;;;;11.37;8.33;;;1.60;99.90;;;;;;5073253;28;20830;-60
2023/03/02 07:53:27;;;;;;;12.53;8.77;;;1.80;99.90;;;;;;5077360;28;20485;-59
2023/03/02 07:55:55;;;;;;;12.50;8.20;;;1.90;99.90;;;;;;5080346;28;20912;-59
2023/03/02 07:58:23;;;;;;;11.83;8.47;;;2.10;99.90;;;;;;5080136;28;20428;-58
2023/03/02 08:00:50;;;;;;;10.03;8.10;;;2.30;99.90;;;;;;5079768;28;20936;-60
2023/03/02 08:03:20;;;;;;;10.80;7.93;;;2.50;99.90;;;;;;5080089;28;20457;-58
2023/03/02 08:05:47;;;;;;;10.30;7.30;;;2.60;99.90;;;;;;5079142;28;20479;-60
2023/03/02 08:08:21;;;;;;;12.33;8.80;;;2.60;99.90;;;;;;5075090;28;20446;-63
2023/03/02 08:10:52;;;;;;;13.53;8.40;;;2.80;99.90;;;;;;5080265;28;20449;-59
2023/03/02 08:13:21;;;;;;;12.30;8.70;;;3.00;99.90;;;;;;5080177;28;20492;-60
2023/03/02 08:15:48;;;;;;;10.70;8.57;;;3.10;99.90;;;;;;5079539;28;20455;-59
2023/03/02 08:18:16;;;;;;;10.53;7.27;;;3.30;99.90;;;;;;5079054;28;20508;-60
2023/03/02 08:20:43;;;;;;;15.97;8.57;;;3.10;99.90;;;;;;5078968;28;20477;-61
2023/03/02 08:23:10;;;;;;;11.20;9.00;;;3.40;99.90;;;;;;5079198;28;20463;-64
2023/03/02 08:25:42;;;;;;;12.80;9.10;;;3.60;99.90;;;;;;5078527;28;20454;-62
2023/03/02 08:28:09;;;;;;;12.80;7.40;;;3.90;99.90;;;;;;5078056;28;20548;-57
2023/03/02 08:30:36;;;;;;;9.20;7.90;;;4.20;99.90;;;;;;5078534;28;20925;-60
2023/03/02 08:33:03;;;;;;;10.77;8.67;;;4.40;99.90;;;;;;5078599;28;20746;-60
2023/03/02 08:35:30;;;;;;;9.60;7.43;;;4.50;99.90;;;;;;5078324;28;20926;-60
2023/03/02 08:38:00;;;;;;;8.80;7.27;;;4.70;99.90;;;;;;5078426;28;20453;-62
2023/03/02 08:40:28;;;;;;;10.97;7.80;;;4.70;99.90;;;;;;5078051;28;20492;-62
2023/03/02 08:42:57;;;;;;;11.10;7.47;;;4.60;99.90;;;;;;5078826;28;20453;-64
2023/03/02 08:45:25;;;;;;;12.17;7.67;;;4.80;99.90;;;;;;5073068;28;20475;-57
2023/03/02 08:47:54;;;;;;;8.57;7.40;;;4.90;99.90;;;;;;5075782;28;20555;-58
2023/03/02 08:50:21;;;;;;;10.87;8.40;;;5.30;99.90;;;;;;5078507;28;20466;-60
2023/03/02 08:52:48;;;;;;;13.47;8.53;;;5.10;99.90;;;;;;5078738;28;20551;-60
2023/03/02 08:55:17;;;;;;;12.43;9.27;;;5.30;99.90;;;;;;5060979;28;20767;-58
2023/03/02 08:57:44;;;;;;;9.90;7.70;;;5.60;99.90;;;;;;5079983;28;20523;-59
2023/03/02 09:00:15;;;;;;;11.10;8.10;;;5.70;99.90;;;;;;5078841;28;20488;-59
2023/03/02 09:02:42;;;;;;;11.47;7.67;;;5.70;99.90;;;;;;5077977;28;20461;-58
2023/03/02 09:05:11;;;;;;;11.53;9.00;;;5.90;99.90;;;;;;5075866;28;20467;-59
2023/03/02 09:07:38;;;;;;;11.07;9.17;;;6.10;99.90;;;;;;5077808;28;20495;-61
2023/03/02 09:10:05;;;;;;;12.47;9.10;;;6.20;99.90;;;;;;5077636;28;20816;-61
2023/03/02 09:12:33;;;;;;;10.47;8.33;;;6.50;99.90;;;;;;5077080;28;20504;-58
2023/03/02 09:15:00;;;;;;;9.97;7.73;;;6.60;99.90;;;;;;5076445;28;20522;-57
2023/03/02 09:17:28;;;;;;;10.30;8.67;;;6.70;99.90;;;;;;5075434;28;20551;-59
2023/03/02 09:19:56;;;;;;;12.70;8.83;;;6.70;99.90;;;;;;5076505;28;20466;-60
2023/03/02 09:22:23;;;;;;;10.50;8.40;;;6.60;99.90;;;;;;5076774;28;20468;-58
2023/03/02 09:24:50;;;;;;;12.30;9.57;;;6.80;99.90;;;;;;5076649;28;20800;-61
2023/03/02 09:27:17;;;;;;;9.83;8.17;;;7.10;99.90;;;;;;5076739;28;20501;-57
2023/03/02 09:29:44;;;;;;;11.87;9.10;;;7.50;99.90;;;;;;5077383;28;20476;-61
2023/03/02 09:32:12;;;;;;;11.57;8.93;;;7.60;99.90;;;;;;5077416;28;20896;-59
2023/03/02 09:34:41;;;;;;;10.27;8.07;;;7.70;99.90;;;;;;5078731;28;20468;-58
2023/03/02 09:37:08;;;;;;;10.87;8.63;;;7.80;99.90;;;;;;5079010;28;20465;-57
2023/03/02 09:39:37;;;;;;;9.23;8.03;;;7.80;99.90;;;;;;5078892;28;20872;-61
2023/03/02 09:42:27;;;;;;;11.27;8.60;;;8.10;99.90;;;;;;5078277;28;20493;-60
2023/03/02 09:45:03;;;;;;;10.97;8.33;;;8.40;99.90;;;;;;5078325;28;20465;-58
2023/03/02 09:47:38;;;;;;;11.90;8.47;;;8.40;99.90;;;;;;5079071;28;20457;-61
2023/03/02 09:50:25;;;;;;;10.33;8.50;;;8.30;99.90;;;;;;5077902;28;20461;-59
2023/03/02 09:53:02;;;;;;;10.30;8.70;;;8.20;99.90;;;;;;5078781;28;20431;-61
2023/03/02 09:55:33;;;;;;;11.87;8.40;;;8.30;99.90;;;;;;5078786;28;20872;-59
2023/03/02 09:58:03;;;;;;;9.13;7.70;;;8.60;99.90;;;;;;5078672;28;20862;-59
2023/03/02 10:00:35;;;;;;;8.80;7.90;;;8.90;99.90;;;;;;5078237;28;20533;-60
2023/03/02 10:03:06;;;;;;;8.87;7.97;;;9.10;99.90;;;;;;5078868;28;20754;-61
2023/03/02 10:05:40;;;;;;;9.57;8.60;;;8.90;99.90;;;;;;5077878;28;20472;-62
2023/03/02 10:08:13;;;;;;;10.53;7.73;;;9.30;99.90;;;;;;5078122;28;20461;-60
2023/03/02 10:10:43;;;;;;;12.10;8.90;;;9.50;99.90;;;;;;5078467;28;20847;-62
2023/03/02 10:13:23;;;;;;;8.90;8.00;;;9.60;99.90;;;;;;5077859;28;20555;-61
2023/03/02 10:16:09;;;;;;;9.63;8.63;;;10.10;99.90;;;;;;5078389;28;20457;-60
2023/03/02 10:18:41;;;;;;;13.50;9.63;;;10.30;99.90;;;;;;5078127;28;20461;-62
2023/03/02 10:21:20;;;;;;;8.63;7.60;;;10.50;99.90;;;;;;5077912;28;20489;-60
2023/03/02 10:23:54;;;;;;;11.43;8.90;;;10.60;99.90;;;;;;5077984;28;20883;-62
2023/03/02 10:26:29;;;;;;;9.50;7.93;;;10.60;99.90;;;;;;5077699;28;20852;-63
2023/03/02 10:29:06;;;;;;;10.30;8.07;;;10.60;99.90;;;;;;5077865;28;20496;-62
2023/03/02 10:31:34;;;;;;;11.33;7.50;;;10.00;99.90;;;;;;5077140;28;20452;-61
2023/03/02 10:34:01;;;;;;;13.93;9.80;;;10.40;99.90;;;;;;5078077;28;20464;-60
2023/03/02 10:36:37;;;;;;;9.97;8.60;;;10.60;99.90;;;;;;5077472;28;20458;-61
2023/03/02 10:39:12;;;;;;;16.77;8.00;;;10.90;99.90;;;;;;5077395;28;20463;-60
2023/03/02 10:41:43;;;;;;;10.10;8.27;;;10.80;99.90;;;;;;5077454;28;20496;-60
2023/03/02 10:44:17;;;;;;;9.47;8.47;;;10.50;99.90;;;;;;5076262;28;20472;-60
2023/03/02 10:46:46;;;;;;;9.57;8.57;;;10.80;99.90;;;;;;5077715;28;20468;-60
2023/03/02 10:49:29;;;;;;;10.70;9.13;;;10.40;99.90;;;;;;5077055;28;20497;-59
2023/03/02 10:52:00;;;;;;;11.60;8.30;;;10.00;99.90;;;;;;5076425;28;21210;-60
2023/03/02 10:54:28;;;;;;;8.97;8.07;;;10.60;99.90;;;;;;5076192;28;20753;-60
2023/03/02 10:56:58;;;;;;;8.60;7.57;;;10.90;99.90;;;;;;5075130;28;20464;-60
2023/03/02 10:59:42;;;;;;;9.80;8.80;;;11.10;99.90;;;;;;5075702;28;20496;-60
2023/03/02 11:02:21;;;;;;;9.27;7.97;;;10.30;99.90;;;;;;5075265;28;20493;-62
2023/03/02 11:04:48;;;;;;;11.00;7.80;;;10.90;99.90;;;;;;5076598;28;20472;-61
2023/03/02 11:07:19;;;;;;;9.47;8.20;;;10.90;99.90;;;;;;5077406;28;20547;-61
2023/03/02 11:09:58;;;;;;;9.53;8.63;;;11.20;99.90;;;;;;5077501;28;20473;-59
2023/03/02 11:12:25;;;;;;;11.20;9.00;;;11.30;99.90;;;;;;5077246;28;20557;-60
2023/03/02 11:15:16;;;;;;;10.13;9.17;;;11.80;99.90;;;;;;5077077;28;20481;-60
2023/03/02 11:17:45;;;;;;;10.10;8.30;;;11.70;99.90;;;;;;5077269;28;20858;-60
2023/03/02 11:20:16;;;;;;;11.37;9.97;;;11.10;99.90;;;;;;5075534;28;20461;-60
2023/03/02 11:22:56;;;;;;;12.53;8.53;;;11.90;99.90;;;;;;5071380;28;20520;-59
2023/03/02 11:25:28;;;;;;;8.90;7.47;;;11.70;99.90;;;;;;5077265;28;20488;-60
2023/03/02 11:28:00;;;;;;;8.80;7.70;;;11.40;99.90;;;;;;5076433;28;20544;-60
2023/03/02 11:30:30;;;;;;;9.10;8.20;;;11.90;99.90;;;;;;5076290;28;20576;-61
2023/03/02 11:33:02;;;;;;;10.03;8.77;;;11.60;99.90;;;;;;5076074;28;20465;-60
2023/03/02 11:35:33;;;;;;;9.13;8.10;;;11.10;99.90;;;;;;5076145;28;20475;-59
2023/03/02 11:38:11;;;;;;;10.53;7.77;;;11.40;99.90;;;;;;5077119;28;20556;-61
2023/03/02 11:40:45;;;;;;;8.90;8.00;;;12.00;99.90;;;;;;5076448;28;20461;-60
2023/03/02 11:43:13;;;;;;;9.73;7.83;;;12.30;99.90;;;;;;5075609;28;20494;-60
2023/03/02 11:45:45;;;;;;;10.13;8.40;;;12.40;99.90;;;;;;5075736;28;20470;-60
2023/03/02 11:48:19;;;;;;;12.60;8.07;;;12.70;99.90;;;;;;5076479;28;20556;-61
2023/03/02 16:20:19;;;;;;;7.10;4.77;;;9.10;99.90;;;;;;4518834;28;20519;-60
2023/03/02 16:22:47;;;;;;;8.43;5.23;;;8.90;99.90;;;;;;5079565;28;20542;-61
2023/03/02 16:25:14;;;;;;;6.47;5.43;;;8.80;99.90;;;;;;5075436;28;20498;-61
2023/03/02 16:27:45;;;;;;;6.70;5.20;;;8.70;99.90;;;;;;5060178;28;20476;-61
2023/03/02 16:30:14;;;;;;;7.37;5.40;;;8.60;99.90;;;;;;5092906;28;20473;-61
2023/03/02 16:32:41;;;;;;;6.47;5.77;;;8.50;99.90;;;;;;5092669;28;20465;-61
2023/03/02 16:35:10;;;;;;;10.50;6.43;;;8.50;99.90;;;;;;5078918;28;20468;-59
2023/03/02 16:37:38;;;;;;;6.43;5.40;;;8.30;99.90;;;;;;5080838;28;20462;-60
2023/03/02 16:40:07;;;;;;;6.70;5.90;;;8.20;99.90;;;;;;5065400;28;20891;-61
2023/03/02 16:42:34;;;;;;;6.97;5.80;;;8.10;99.90;;;;;;5061747;28;21175;-61
2023/03/02 16:45:02;;;;;;;7.60;5.60;;;8.00;99.90;;;;;;5059280;28;20470;-60
2023/03/02 16:47:29;;;;;;;8.70;5.93;;;7.90;99.90;;;;;;5057638;28;20462;-61
2023/03/02 16:49:56;;;;;;;6.57;5.87;;;7.80;99.90;;;;;;5073600;28;20473;-61
2023/03/02 16:52:23;;;;;;;7.23;6.37;;;7.70;99.90;;;;;;5076432;28;20464;-60
2023/03/02 16:54:51;;;;;;;9.30;6.70;;;7.70;99.90;;;;;;5076981;28;20774;-60
2023/03/02 16:57:19;;;;;;;7.33;5.30;;;7.70;99.90;;;;;;5073845;28;20781;-60
2023/03/02 16:59:46;;;;;;;9.83;5.70;;;7.60;99.90;;;;;;5077218;28;20449;-61
2023/03/02 17:02:14;;;;;;;9.10;6.30;;;7.50;99.90;;;;;;5077558;28;20520;-60
2023/03/02 17:04:41;;;;;;;8.00;6.67;;;7.40;99.90;;;;;;5077672;28;20473;-61
2023/03/02 17:07:09;;;;;;;8.07;6.20;;;7.40;99.90;;;;;;5076485;28;20465;-59
2023/03/02 17:09:40;;;;;;;8.20;6.43;;;7.30;99.90;;;;;;5077322;28;20474;-60
2023/03/02 17:12:08;;;;;;;9.23;6.90;;;7.20;99.90;;;;;;5076220;28;20436;-60
2023/03/02 17:14:35;;;;;;;9.27;7.27;;;7.10;99.90;;;;;;5075918;28;20476;-60
2023/03/02 17:17:03;;;;;;;9.93;7.93;;;7.00;99.90;;;;;;5078181;28;20783;-61
2023/03/02 17:19:30;;;;;;;12.43;9.40;;;7.00;99.90;;;;;;5077396;28;20934;-61
2023/03/02 17:21:57;;;;;;;12.40;9.37;;;6.80;99.90;;;;;;5078078;28;20799;-61